createdAt,value
2023-04-14T00:00:24.475Z,92.02
2023-04-14T00:01:24.435Z,92.02
2023-04-14T00:02:24.580Z,92.13
2023-04-14T00:03:24.742Z,92.13
2023-04-14T00:04:24.522Z,92.02
2023-04-14T00:05:24.380Z,92.13
2023-04-14T00:06:24.381Z,92.23
2023-04-14T00:07:24.374Z,92.33
2023-04-14T00:08:24.351Z,92.33
2023-04-14T00:09:24.358Z,92.54
2023-04-14T00:10:24.313Z,92.54
2023-04-14T00:11:24.323Z,92.54
2023-04-14T00:12:24.299Z,92.64
2023-04-14T00:13:24.329Z,92.64
2023-04-14T00:14:24.286Z,92.54
2023-04-14T00:15:24.265Z,92.64
2023-04-14T00:16:24.330Z,92.54
2023-04-14T00:17:24.288Z,92.54
2023-04-14T00:18:24.248Z,92.64
2023-04-14T00:19:24.217Z,92.64
2023-04-14T00:20:24.187Z,92.64
2023-04-14T00:21:24.178Z,92.54
2023-04-14T00:22:24.160Z,92.44
2023-04-14T00:23:24.208Z,92.44
2023-04-14T00:24:24.146Z,92.44
2023-04-14T00:25:24.149Z,92.44
2023-04-14T00:26:24.129Z,92.44
2023-04-14T00:27:24.111Z,92.44
2023-04-14T00:28:24.145Z,92.33
2023-04-14T00:29:24.082Z,92.38
2023-04-14T00:30:24.097Z,92.48
2023-04-14T00:31:24.101Z,92.48
2023-04-14T00:32:24.060Z,92.48
2023-04-14T00:33:24.089Z,92.58
2023-04-14T00:34:24.023Z,92.68
2023-04-14T00:35:24.025Z,92.79
2023-04-14T00:36:24.027Z,92.79
2023-04-14T00:37:23.981Z,92.89
2023-04-14T00:38:23.996Z,92.79
2023-04-14T00:39:23.986Z,92.79
2023-04-14T00:40:23.943Z,92.89
2023-04-14T00:41:23.930Z,92.89
2023-04-14T00:42:23.920Z,92.99
2023-04-14T00:43:23.908Z,92.99
2023-04-14T00:44:23.938Z,92.89
2023-04-14T00:45:23.880Z,92.79
2023-04-14T00:46:23.894Z,92.79
2023-04-14T00:47:23.882Z,92.89
2023-04-14T00:48:23.839Z,92.89
2023-04-14T00:49:23.853Z,92.99
2023-04-14T00:50:23.832Z,92.99
2023-04-14T00:51:23.803Z,92.99
2023-04-14T00:52:23.780Z,93.10
2023-04-14T00:53:23.789Z,92.99
2023-04-14T00:54:23.803Z,93.10
2023-04-14T00:55:23.754Z,93.20
2023-04-14T00:56:23.739Z,93.20
2023-04-14T00:57:23.775Z,93.30
2023-04-14T00:58:23.725Z,93.41
2023-04-14T00:59:23.756Z,93.41
2023-04-14T01:00:23.739Z,93.55
2023-04-14T01:01:23.767Z,93.66
2023-04-14T01:02:23.873Z,93.76
2023-04-14T01:03:23.760Z,93.87
2023-04-14T01:04:24.354Z,93.97
2023-04-14T01:05:23.683Z,94.07
2023-04-14T01:06:23.612Z,94.18
2023-04-14T01:07:23.603Z,94.18
2023-04-14T01:08:23.639Z,94.28
2023-04-14T01:09:23.576Z,94.38
2023-04-14T01:10:23.581Z,94.38
2023-04-14T01:11:23.576Z,94.38
2023-04-14T01:12:23.554Z,94.38
2023-04-14T01:13:23.560Z,94.38
2023-04-14T01:14:23.552Z,94.38
2023-04-14T01:15:23.510Z,94.48
2023-04-14T01:16:23.547Z,94.38
2023-04-14T01:17:23.514Z,94.28
2023-04-14T01:18:23.499Z,94.28
2023-04-14T01:19:23.480Z,94.18
2023-04-14T01:20:23.454Z,94.07
2023-04-14T01:21:23.465Z,94.07
2023-04-14T01:22:23.446Z,94.07
2023-04-14T01:23:23.398Z,94.07
2023-04-14T01:24:23.441Z,94.07
2023-04-14T01:25:23.363Z,94.07
2023-04-14T01:26:23.361Z,94.07
2023-04-14T01:27:23.370Z,94.07
2023-04-14T01:28:23.321Z,94.18
2023-04-14T01:29:23.347Z,94.18
2023-04-14T01:30:23.295Z,94.28
2023-04-14T01:31:23.405Z,94.28
2023-04-14T01:32:23.293Z,94.28
2023-04-14T01:33:30.768Z,94.18
2023-04-14T01:34:23.254Z,94.28
2023-04-14T01:35:23.223Z,94.28
2023-04-14T01:36:23.219Z,94.38
2023-04-14T01:37:23.198Z,94.38
2023-04-14T01:38:30.204Z,94.38
2023-04-14T01:39:23.188Z,94.48
2023-04-14T01:40:23.165Z,94.48
2023-04-14T01:41:23.154Z,94.59
2023-04-14T01:42:23.138Z,94.59
2023-04-14T01:43:23.136Z,94.69
2023-04-14T01:44:23.131Z,94.59
2023-04-14T01:45:23.136Z,94.59
2023-04-14T01:46:23.170Z,94.59
2023-04-14T01:47:23.106Z,94.63
2023-04-14T01:48:23.072Z,94.63
2023-04-14T01:49:23.095Z,94.63
2023-04-14T01:50:23.060Z,94.73
2023-04-14T01:51:23.070Z,94.63
2023-04-14T01:52:23.058Z,94.63
2023-04-14T01:53:23.007Z,94.63
2023-04-14T01:54:23.035Z,94.63
2023-04-14T01:55:22.982Z,94.63
2023-04-14T01:56:22.997Z,94.48
2023-04-14T01:57:23.200Z,94.48
2023-04-14T01:58:22.956Z,94.38
2023-04-14T01:59:22.950Z,94.38
2023-04-14T02:00:22.928Z,94.38
2023-04-14T02:01:22.949Z,94.38
2023-04-14T02:02:23.009Z,94.38
2023-04-14T02:03:22.920Z,94.38
2023-04-14T02:04:22.958Z,94.38
2023-04-14T02:05:22.903Z,94.38
2023-04-14T02:06:22.845Z,94.38
2023-04-14T02:07:22.838Z,94.38
2023-04-14T02:08:22.816Z,94.28
2023-04-14T02:09:22.848Z,94.38
2023-04-14T02:10:22.885Z,94.38
2023-04-14T02:11:22.783Z,94.38
2023-04-14T02:12:22.782Z,94.48
2023-04-14T02:13:22.769Z,94.38
2023-04-14T02:14:22.758Z,94.38
2023-04-14T02:15:22.741Z,94.38
2023-04-14T02:16:22.733Z,94.28
2023-04-14T02:17:22.724Z,94.28
2023-04-14T02:18:22.684Z,94.32
2023-04-14T02:19:22.714Z,94.43
2023-04-14T02:20:22.682Z,94.43
2023-04-14T02:21:22.689Z,94.43
2023-04-14T02:22:22.637Z,94.43
2023-04-14T02:23:22.613Z,94.38
2023-04-14T02:24:22.626Z,94.43
2023-04-14T02:25:22.600Z,94.43
2023-04-14T02:26:22.608Z,94.43
2023-04-14T02:27:22.568Z,94.43
2023-04-14T02:28:22.551Z,94.43
2023-04-14T02:29:22.557Z,94.43
2023-04-14T02:30:22.569Z,94.43
2023-04-14T02:31:22.650Z,94.48
2023-04-14T02:32:22.570Z,94.48
2023-04-14T02:33:22.500Z,94.48
2023-04-14T02:34:22.533Z,94.43
2023-04-14T02:35:22.479Z,94.43
2023-04-14T02:36:22.452Z,94.43
2023-04-14T02:37:22.481Z,94.43
2023-04-14T02:38:22.455Z,94.43
2023-04-14T02:39:22.426Z,94.43
2023-04-14T02:40:22.424Z,94.43
2023-04-14T02:41:22.418Z,94.43
2023-04-14T02:42:22.382Z,94.43
2023-04-14T02:43:22.381Z,94.53
2023-04-14T02:44:22.360Z,94.53
2023-04-14T02:45:22.394Z,94.53
2023-04-14T02:46:22.391Z,94.63
2023-04-14T02:47:22.332Z,94.53
2023-04-14T02:48:22.299Z,94.63
2023-04-14T02:49:22.296Z,94.53
2023-04-14T02:50:22.328Z,94.53
2023-04-14T02:51:22.265Z,94.53
2023-04-14T02:52:22.281Z,94.53
2023-04-14T02:53:22.285Z,94.53
2023-04-14T02:54:22.251Z,94.53
2023-04-14T02:55:22.214Z,94.53
2023-04-14T02:56:22.222Z,94.53
2023-04-14T02:57:22.188Z,94.53
2023-04-14T02:58:22.189Z,94.53
2023-04-14T02:59:22.197Z,94.53
2023-04-14T03:00:22.151Z,94.53
2023-04-14T03:01:22.177Z,94.63
2023-04-14T03:02:22.328Z,94.63
2023-04-14T03:03:22.198Z,94.63
2023-04-14T03:04:22.125Z,94.63
2023-04-14T03:05:22.108Z,94.63
2023-04-14T03:06:22.101Z,94.63
2023-04-14T03:07:22.068Z,94.63
2023-04-14T03:08:22.052Z,94.63
2023-04-14T03:09:22.019Z,94.63
2023-04-14T03:10:22.058Z,94.63
2023-04-14T03:11:21.997Z,94.63
2023-04-14T03:12:22.004Z,94.63
2023-04-14T03:13:21.986Z,94.63
2023-04-14T03:14:28.960Z,94.53
2023-04-14T03:15:28.958Z,94.53
2023-04-14T03:16:22.000Z,94.53
2023-04-14T03:17:21.980Z,94.53
2023-04-14T03:18:29.414Z,94.53
2023-04-14T03:19:28.893Z,94.53
2023-04-14T03:20:28.910Z,94.53
2023-04-14T03:21:21.881Z,94.63
2023-04-14T03:22:21.868Z,94.53
2023-04-14T03:23:21.865Z,94.53
2023-04-14T03:24:21.839Z,94.53
2023-04-14T03:25:21.854Z,94.53
2023-04-14T03:26:21.820Z,94.43
2023-04-14T03:27:21.809Z,94.43
2023-04-14T03:28:21.788Z,94.43
2023-04-14T03:29:21.771Z,94.43
2023-04-14T03:30:21.785Z,94.43
2023-04-14T03:31:21.784Z,94.53
2023-04-14T03:32:21.777Z,94.53
2023-04-14T03:33:21.740Z,94.63
2023-04-14T03:34:21.727Z,94.63
2023-04-14T03:35:21.714Z,94.68
2023-04-14T03:36:21.682Z,94.78
2023-04-14T03:37:21.663Z,94.73
2023-04-14T03:38:21.681Z,94.84
2023-04-14T03:39:21.662Z,94.84
2023-04-14T03:40:21.649Z,94.84
2023-04-14T03:41:21.602Z,94.94
2023-04-14T03:42:21.631Z,94.94
2023-04-14T03:43:21.592Z,94.94
2023-04-14T03:44:21.591Z,94.94
2023-04-14T03:45:21.592Z,94.94
2023-04-14T03:46:21.640Z,94.94
2023-04-14T03:47:21.583Z,94.94
2023-04-14T03:48:21.533Z,94.94
2023-04-14T03:49:21.539Z,94.94
2023-04-14T04:03:00.415Z,94.94
2023-04-14T04:04:00.239Z,94.94
2023-04-14T04:05:00.289Z,94.94
2023-04-14T04:06:00.114Z,95.09
2023-04-14T04:07:00.065Z,95.09
2023-04-14T04:08:00.089Z,95.09
2023-04-14T04:09:00.189Z,95.09
2023-04-14T04:10:00.056Z,95.09
2023-04-14T04:11:00.028Z,95.09
2023-04-14T04:12:00.006Z,95.09
2023-04-14T04:13:00.008Z,95.09
2023-04-14T04:13:59.983Z,95.09
2023-04-14T04:14:59.958Z,95.09
2023-04-14T04:15:59.951Z,95.09
2023-04-14T04:16:59.963Z,95.09
2023-04-14T04:17:59.975Z,95.09
2023-04-14T04:19:00.234Z,95.09
2023-04-14T04:19:59.887Z,95.09
2023-04-14T04:20:59.907Z,95.09
2023-04-14T04:21:59.866Z,95.09
2023-04-14T04:22:59.864Z,95.09
2023-04-14T04:23:59.834Z,95.09
2023-04-14T04:24:59.818Z,95.09
2023-04-14T04:25:59.827Z,95.09
2023-04-14T04:26:59.826Z,95.09
2023-04-14T04:27:59.780Z,95.09
2023-04-14T04:29:00.005Z,95.09
2023-04-14T04:29:59.812Z,95.09
2023-04-14T04:30:59.795Z,95.09
2023-04-14T04:31:59.815Z,95.09
2023-04-14T04:32:59.755Z,95.09
2023-04-14T04:33:59.715Z,95.19
2023-04-14T04:34:59.745Z,95.09
2023-04-14T04:35:59.694Z,95.19
2023-04-14T04:36:59.678Z,95.19
2023-04-14T04:37:59.721Z,95.19
2023-04-14T04:38:59.915Z,95.29
2023-04-14T04:39:59.628Z,95.19
2023-04-14T04:40:59.673Z,95.19
2023-04-14T04:41:59.602Z,95.19
2023-04-14T04:42:59.628Z,95.19
2023-04-14T04:43:59.591Z,95.19
2023-04-14T04:44:59.558Z,95.19
2023-04-14T04:45:59.585Z,95.19
2023-04-14T04:46:59.563Z,95.19
2023-04-14T04:47:59.601Z,95.19
2023-04-14T04:48:59.814Z,95.29
2023-04-14T04:49:59.493Z,95.29
2023-04-14T04:50:59.540Z,95.29
2023-04-14T04:51:59.476Z,95.29
2023-04-14T04:52:59.506Z,95.29
2023-04-14T04:53:59.449Z,95.29
2023-04-14T04:54:59.437Z,95.29
2023-04-14T04:55:59.448Z,95.29
2023-04-14T04:56:59.454Z,95.29
2023-04-14T04:57:59.406Z,95.29
2023-04-14T04:58:59.914Z,95.29
2023-04-14T04:59:59.428Z,95.36
2023-04-14T05:00:59.426Z,95.36
2023-04-14T05:01:59.422Z,95.29
2023-04-14T05:02:59.565Z,95.29
2023-04-14T05:03:59.346Z,95.29
2023-04-14T05:04:59.319Z,95.25
2023-04-14T05:05:59.317Z,95.25
2023-04-14T05:06:59.313Z,95.25
2023-04-14T05:07:59.314Z,95.15
2023-04-14T05:08:59.560Z,95.15
2023-04-14T05:09:59.296Z,95.15
2023-04-14T05:10:59.240Z,95.15
2023-04-14T05:11:59.264Z,95.19
2023-04-14T05:12:59.216Z,95.19
2023-04-14T05:13:59.208Z,95.19
2023-04-14T05:14:59.180Z,95.19
2023-04-14T05:15:59.229Z,95.25
2023-04-14T05:16:59.161Z,95.25
2023-04-14T05:18:06.177Z,95.25
2023-04-14T05:18:59.647Z,95.25
2023-04-14T05:19:59.129Z,95.36
2023-04-14T05:20:59.135Z,95.36
2023-04-14T05:21:59.090Z,95.25
2023-04-14T05:22:59.072Z,95.25
2023-04-14T05:23:59.042Z,95.25
2023-04-14T05:24:59.054Z,95.25
2023-04-14T05:26:11.197Z,95.15
2023-04-14T05:27:13.640Z,95.15
2023-04-14T05:28:00.013Z,95.04
2023-04-14T05:28:59.096Z,95.04
2023-04-14T05:29:58.980Z,95.04
2023-04-14T05:31:01.263Z,95.04
2023-04-14T05:31:58.955Z,95.04
2023-04-14T05:32:58.990Z,95.15
2023-04-14T05:33:59.096Z,95.15
2023-04-14T05:34:58.926Z,95.15
2023-04-14T05:35:58.925Z,95.04
2023-04-14T05:36:58.908Z,95.04
2023-04-14T05:37:58.877Z,95.04
2023-04-14T05:38:58.865Z,95.04
2023-04-14T05:39:58.851Z,95.04
2023-04-14T05:40:58.841Z,95.15
2023-04-14T05:41:58.856Z,95.15
2023-04-14T05:42:58.854Z,95.15
2023-04-14T05:43:58.911Z,95.25
2023-04-14T05:44:58.788Z,95.25
2023-04-14T05:45:58.793Z,95.21
2023-04-14T05:46:58.870Z,95.21
2023-04-14T05:47:58.929Z,95.00
2023-04-14T05:48:58.855Z,95.00
2023-04-14T05:49:58.716Z,95.00
2023-04-14T05:50:58.707Z,95.00
2023-04-14T05:51:58.715Z,95.00
2023-04-14T05:52:58.718Z,95.00
2023-04-14T05:53:58.929Z,95.10
2023-04-14T05:54:58.651Z,95.10
2023-04-14T05:55:58.647Z,95.10
2023-04-14T05:56:58.644Z,95.10
2023-04-14T05:57:58.651Z,95.00
2023-04-14T05:58:58.654Z,95.00
2023-04-14T05:59:58.602Z,95.10
2023-04-14T06:00:58.582Z,95.00
2023-04-14T06:01:58.665Z,94.90
2023-04-14T06:02:58.830Z,94.79
2023-04-14T06:03:58.905Z,94.69
2023-04-14T06:04:58.585Z,94.79
2023-04-14T06:05:58.516Z,94.79
2023-04-14T06:06:58.527Z,94.79
2023-04-14T06:07:58.513Z,94.69
2023-04-14T06:08:58.639Z,94.69
2023-04-14T06:09:58.443Z,94.69
2023-04-14T06:10:58.449Z,94.69
2023-04-14T06:11:58.444Z,94.69
2023-04-14T06:12:58.442Z,94.59
2023-04-14T06:13:58.491Z,94.54
2023-04-14T06:14:58.395Z,94.65
2023-04-14T06:15:58.403Z,94.54
2023-04-14T06:16:58.410Z,94.54
2023-04-14T06:17:58.434Z,94.34
2023-04-14T06:18:58.526Z,94.23
2023-04-14T06:19:58.322Z,94.34
2023-04-14T06:20:58.341Z,94.34
2023-04-14T06:21:58.315Z,94.23
2023-04-14T06:22:58.299Z,94.34
2023-04-14T06:23:58.294Z,94.23
2023-04-14T06:24:58.284Z,94.13
2023-04-14T06:25:58.250Z,94.23
2023-04-14T06:26:58.256Z,94.34
2023-04-14T06:27:58.254Z,94.23
2023-04-14T06:28:58.356Z,94.23
2023-04-14T06:29:58.184Z,94.29
2023-04-14T06:30:58.183Z,94.19
2023-04-14T06:31:58.208Z,94.13
2023-04-14T06:32:58.267Z,93.93
2023-04-14T06:33:58.183Z,93.93
2023-04-14T06:34:58.197Z,93.88
2023-04-14T06:35:58.118Z,93.88
2023-04-14T06:36:58.120Z,93.78
2023-04-14T06:37:58.104Z,93.78
2023-04-14T06:38:58.224Z,93.78
2023-04-14T06:39:58.078Z,93.68
2023-04-14T06:40:58.048Z,93.68
2023-04-14T06:41:58.035Z,93.57
2023-04-14T06:42:58.050Z,93.57
2023-04-14T06:43:58.004Z,93.37
2023-04-14T06:44:58.011Z,93.47
2023-04-14T06:45:58.047Z,93.37
2023-04-14T06:46:57.988Z,93.47
2023-04-14T06:47:58.027Z,93.57
2023-04-14T06:48:57.949Z,93.57
2023-04-14T06:49:57.925Z,93.57
2023-04-14T06:50:57.928Z,93.63
2023-04-14T06:51:57.977Z,93.63
2023-04-14T06:52:57.943Z,93.53
2023-04-14T06:53:57.923Z,93.53
2023-04-14T06:54:57.873Z,93.43
2023-04-14T06:55:57.863Z,93.22
2023-04-14T06:56:59.509Z,93.12
2023-04-14T06:57:57.845Z,93.01
2023-04-14T06:58:57.828Z,92.80
2023-04-14T06:59:57.827Z,92.60
2023-04-14T07:00:57.848Z,92.29
2023-04-14T07:01:57.840Z,92.40
2023-04-14T07:02:57.934Z,92.50
2023-04-14T07:03:57.766Z,92.50
2023-04-14T07:04:57.808Z,92.50
2023-04-14T07:05:57.729Z,92.60
2023-04-14T07:06:57.729Z,92.70
2023-04-14T07:07:57.712Z,92.66
2023-04-14T07:08:57.700Z,92.66
2023-04-14T07:09:57.717Z,92.66
2023-04-14T07:10:57.671Z,92.35
2023-04-14T07:11:57.645Z,92.25
2023-04-14T07:12:57.673Z,92.25
2023-04-14T07:13:57.628Z,92.14
2023-04-14T07:14:57.626Z,91.83
2023-04-14T07:15:57.624Z,91.94
2023-04-14T07:16:57.599Z,91.79
2023-04-14T07:17:59.937Z,91.69
2023-04-14T07:18:57.569Z,91.58
2023-04-14T07:19:57.609Z,91.38
2023-04-14T07:20:57.554Z,91.38
2023-04-14T07:21:57.526Z,91.28
2023-04-14T07:22:57.523Z,91.28
2023-04-14T07:23:57.499Z,91.38
2023-04-14T07:24:57.491Z,91.28
2023-04-14T07:25:57.480Z,91.38
2023-04-14T07:26:57.518Z,91.17
2023-04-14T07:28:03.283Z,90.97
2023-04-14T07:28:58.448Z,91.07
2023-04-14T07:29:57.428Z,90.86
2023-04-14T07:30:57.458Z,90.97
2023-04-14T07:31:57.403Z,91.07
2023-04-14T07:32:57.423Z,90.92
2023-04-14T07:33:57.369Z,90.82
2023-04-14T07:34:58.780Z,90.92
2023-04-14T07:36:57.362Z,90.92
2023-04-14T07:37:57.334Z,90.61
2023-04-14T07:38:57.331Z,90.78
2023-04-14T07:39:57.300Z,90.67
2023-04-14T07:40:57.318Z,90.26
2023-04-14T07:41:57.283Z,90.06
2023-04-14T07:42:57.270Z,90.06
2023-04-14T07:43:57.248Z,90.06
2023-04-14T07:44:57.238Z,90.06
2023-04-14T07:45:57.243Z,90.16
2023-04-14T07:46:57.231Z,89.85
2023-04-14T07:47:57.878Z,89.54
2023-04-14T07:48:57.180Z,89.54
2023-04-14T07:49:57.162Z,89.54
2023-04-14T07:50:57.170Z,89.65
2023-04-14T07:51:57.146Z,89.50
2023-04-14T07:52:57.149Z,89.29
2023-04-14T07:53:57.136Z,89.29
2023-04-14T07:54:57.110Z,89.19
2023-04-14T07:55:57.102Z,89.09
2023-04-14T07:56:57.125Z,89.19
2023-04-14T07:57:57.081Z,89.29
2023-04-14T07:58:57.086Z,88.78
2023-04-14T07:59:57.027Z,88.95
2023-04-14T08:00:57.034Z,88.84
2023-04-14T08:01:57.145Z,88.33
2023-04-14T08:02:57.112Z,88.23
2023-04-14T08:03:57.333Z,88.53
2023-04-14T08:04:57.021Z,88.64
2023-04-14T08:05:56.962Z,89.31
2023-04-14T08:06:56.978Z,88.80
2023-04-14T08:07:56.933Z,88.80
2023-04-14T08:08:56.942Z,88.70
2023-04-14T08:09:56.916Z,88.18
2023-04-14T08:10:56.898Z,88.18
2023-04-14T08:11:56.926Z,88.08
2023-04-14T08:12:56.894Z,88.08
2023-04-14T08:13:56.874Z,88.29
2023-04-14T08:14:56.847Z,88.08
2023-04-14T08:15:56.875Z,87.87
2023-04-14T08:16:56.844Z,87.87
2023-04-14T08:17:56.825Z,87.77
2023-04-14T08:18:58.019Z,87.87
2023-04-14T08:19:56.829Z,87.67
2023-04-14T08:20:56.772Z,87.52
2023-04-14T08:21:56.759Z,87.26
2023-04-14T08:22:56.758Z,87.26
2023-04-14T08:23:56.763Z,87.36
2023-04-14T08:24:56.721Z,87.46
2023-04-14T08:25:56.699Z,87.42
2023-04-14T08:26:56.679Z,87.01
2023-04-14T08:27:56.705Z,86.60
2023-04-14T08:28:56.695Z,86.08
2023-04-14T08:29:56.707Z,86.13
2023-04-14T08:30:56.625Z,86.33
2023-04-14T08:31:56.668Z,86.64
2023-04-14T08:32:56.994Z,86.60
2023-04-14T08:33:56.610Z,86.50
2023-04-14T08:35:36.092Z,86.29
2023-04-14T08:35:59.646Z,86.08
2023-04-14T08:36:56.551Z,86.08
2023-04-14T08:37:56.544Z,86.35
2023-04-14T08:38:56.526Z,86.56
2023-04-14T08:39:56.568Z,86.25
2023-04-14T08:40:56.525Z,86.00
2023-04-14T08:41:56.487Z,85.60
2023-04-14T08:42:56.478Z,85.39
2023-04-14T08:43:56.465Z,84.98
2023-04-14T08:44:56.485Z,84.84
2023-04-14T08:45:56.493Z,84.84
2023-04-14T08:46:56.424Z,84.53
2023-04-14T08:47:56.445Z,84.42
2023-04-14T08:48:56.392Z,84.32
2023-04-14T08:49:56.426Z,84.12
2023-04-14T08:50:56.363Z,83.81
2023-04-14T08:51:56.355Z,83.81
2023-04-14T08:52:56.382Z,83.70
2023-04-14T08:53:56.360Z,83.91
2023-04-14T08:54:56.321Z,84.32
2023-04-14T08:55:58.180Z,84.39
2023-04-14T08:56:56.290Z,84.39
2023-04-14T08:57:56.280Z,84.08
2023-04-14T08:58:56.263Z,83.36
2023-04-14T08:59:56.254Z,83.26
2023-04-14T09:00:56.259Z,82.84
2023-04-14T09:01:56.643Z,82.64
2023-04-14T09:02:56.407Z,82.54
2023-04-14T09:03:56.366Z,82.33
2023-04-14T09:04:56.261Z,82.54
2023-04-14T09:05:56.208Z,82.43
2023-04-14T09:06:56.144Z,82.75
2023-04-14T09:07:56.152Z,82.64
2023-04-14T09:08:56.121Z,82.75
2023-04-14T09:09:56.115Z,82.64
2023-04-14T09:10:56.144Z,82.64
2023-04-14T09:11:56.103Z,83.05
2023-04-14T09:12:56.089Z,83.26
2023-04-14T09:13:56.083Z,83.05
2023-04-14T09:14:56.100Z,83.05
2023-04-14T09:15:56.054Z,82.95
2023-04-14T09:16:56.049Z,82.13
2023-04-14T09:17:56.074Z,82.13
2023-04-14T09:18:56.013Z,82.23
2023-04-14T09:20:35.172Z,82.23
2023-04-14T09:21:31.802Z,82.43
2023-04-14T09:21:57.115Z,82.64
2023-04-14T09:22:55.956Z,82.89
2023-04-14T09:23:55.940Z,82.78
2023-04-14T09:24:55.906Z,83.19
2023-04-14T09:25:55.942Z,83.50
2023-04-14T09:26:55.899Z,83.50
2023-04-14T09:27:55.894Z,83.67
2023-04-14T09:28:55.886Z,83.56
2023-04-14T09:29:55.857Z,82.95
2023-04-14T09:30:55.881Z,82.54
2023-04-14T09:31:55.828Z,82.54
2023-04-14T09:32:55.881Z,82.43
2023-04-14T09:33:55.850Z,82.64
2023-04-14T09:34:57.748Z,82.84
2023-04-14T09:35:55.820Z,82.64
2023-04-14T09:36:55.753Z,82.57
2023-04-14T09:37:55.745Z,82.64
2023-04-14T09:38:55.739Z,82.64
2023-04-14T09:39:55.743Z,82.84
2023-04-14T09:40:57.016Z,82.54
2023-04-14T09:41:55.696Z,82.43
2023-04-14T09:42:55.676Z,82.33
2023-04-14T09:43:55.689Z,82.64
2023-04-14T09:44:55.654Z,83.32
2023-04-14T09:45:55.725Z,83.01
2023-04-14T09:46:56.771Z,82.67
2023-04-14T10:03:04.410Z,79.75
2023-04-14T10:04:04.329Z,79.82
2023-04-14T10:05:04.273Z,79.31
2023-04-14T10:06:04.240Z,78.90
2023-04-14T10:07:04.252Z,78.49
2023-04-14T10:08:04.215Z,78.35
2023-04-14T10:09:04.539Z,77.57
2023-04-14T10:10:04.207Z,78.15
2023-04-14T10:11:04.175Z,77.94
2023-04-14T10:12:04.162Z,77.73
2023-04-14T10:13:04.150Z,78.35
2023-04-14T10:14:04.310Z,77.70
2023-04-14T10:15:04.133Z,76.57
2023-04-14T10:16:11.166Z,76.61
2023-04-14T10:17:04.102Z,77.39
2023-04-14T10:18:04.138Z,77.39
2023-04-14T10:19:04.463Z,76.57
2023-04-14T10:20:04.063Z,76.98
2023-04-14T10:21:04.046Z,76.57
2023-04-14T10:22:04.068Z,76.43
2023-04-14T10:23:04.025Z,76.23
2023-04-14T10:24:04.002Z,76.75
2023-04-14T10:25:04.017Z,76.64
2023-04-14T10:26:03.968Z,75.17
2023-04-14T10:27:03.994Z,74.80
2023-04-14T10:28:04.038Z,75.21
2023-04-14T10:29:04.160Z,74.49
2023-04-14T10:30:03.958Z,74.80
2023-04-14T10:31:03.998Z,74.90
2023-04-14T10:32:04.100Z,74.60
2023-04-14T10:33:03.914Z,75.38
2023-04-14T10:34:03.942Z,76.30
2023-04-14T10:35:03.858Z,74.56
2023-04-14T10:36:03.918Z,74.35
2023-04-14T10:37:03.862Z,74.66
2023-04-14T10:38:03.822Z,74.15
2023-04-14T10:39:03.985Z,74.02
2023-04-14T10:40:03.787Z,73.50
2023-04-14T10:41:03.817Z,73.30
2023-04-14T10:42:03.795Z,72.52
2023-04-14T10:43:03.778Z,72.92
2023-04-14T10:44:03.738Z,73.54
2023-04-14T10:45:03.764Z,73.54
2023-04-14T10:46:03.729Z,73.85
2023-04-14T10:47:03.792Z,73.40
2023-04-14T10:48:03.716Z,72.38
2023-04-14T10:49:03.680Z,72.48
2023-04-14T10:50:03.670Z,72.99
2023-04-14T10:51:03.659Z,72.07
2023-04-14T10:52:03.696Z,72.07
2023-04-14T10:53:03.675Z,71.87
2023-04-14T10:54:03.636Z,71.77
2023-04-14T10:55:03.602Z,72.38
2023-04-14T10:56:03.633Z,72.28
2023-04-14T10:57:03.587Z,72.69
2023-04-14T10:58:03.575Z,72.75
2023-04-14T10:59:03.588Z,73.16
2023-04-14T11:00:03.553Z,72.00
2023-04-14T11:01:03.560Z,72.00
2023-04-14T11:02:03.554Z,70.98
2023-04-14T11:03:03.621Z,71.87
2023-04-14T11:04:03.692Z,71.33
2023-04-14T11:05:03.491Z,70.81
2023-04-14T11:06:03.456Z,70.31
2023-04-14T11:07:03.501Z,70.27
2023-04-14T11:08:03.514Z,69.35
2023-04-14T11:09:03.654Z,69.32
2023-04-14T11:10:03.413Z,67.99
2023-04-14T11:11:03.476Z,67.93
2023-04-14T11:12:03.413Z,68.84
2023-04-14T11:13:03.456Z,69.22
2023-04-14T11:14:03.364Z,68.30
2023-04-14T11:15:03.365Z,68.61
2023-04-14T11:16:03.321Z,68.30
2023-04-14T11:17:04.624Z,67.49
2023-04-14T11:18:03.351Z,66.70
2023-04-14T11:19:03.424Z,67.72
2023-04-14T11:20:03.265Z,67.62
2023-04-14T11:21:03.284Z,67.11
2023-04-14T11:22:03.279Z,66.91
2023-04-14T11:23:03.234Z,67.32
2023-04-14T11:24:03.227Z,67.08
2023-04-14T11:25:03.229Z,65.86
2023-04-14T11:26:03.209Z,65.89
2023-04-14T11:27:03.179Z,65.68
2023-04-14T11:28:03.180Z,66.39
2023-04-14T11:29:03.280Z,66.06
2023-04-14T11:30:03.148Z,66.57
2023-04-14T11:31:03.121Z,66.33
2023-04-14T11:32:03.162Z,66.74
2023-04-14T11:33:03.149Z,65.69
2023-04-14T11:34:03.109Z,65.49
2023-04-14T11:35:03.077Z,65.19
2023-04-14T11:36:03.080Z,66.17
2023-04-14T11:37:03.095Z,65.73
2023-04-14T11:38:03.073Z,64.61
2023-04-14T11:39:03.213Z,63.12
2023-04-14T11:40:03.115Z,63.76
2023-04-14T11:41:03.004Z,65.19
2023-04-14T11:42:03.067Z,64.87
2023-04-14T11:43:02.971Z,65.11
2023-04-14T11:44:02.961Z,65.52
2023-04-14T11:45:02.997Z,64.60
2023-04-14T11:46:02.973Z,65.31
2023-04-14T11:47:02.923Z,66.03
2023-04-14T11:48:02.945Z,65.31
2023-04-14T11:49:03.123Z,65.28
2023-04-14T11:50:02.902Z,65.72
2023-04-14T11:51:02.868Z,66.00
2023-04-14T11:52:02.928Z,65.08
2023-04-14T11:53:02.944Z,64.87
2023-04-14T11:54:02.872Z,65.28
2023-04-14T11:55:02.813Z,64.17
2023-04-14T11:56:02.834Z,64.84
2023-04-14T11:57:02.808Z,64.54
2023-04-14T11:58:02.788Z,64.54
2023-04-14T11:59:03.138Z,64.03
2023-04-14T12:00:02.781Z,63.73
2023-04-14T12:01:02.757Z,63.53
2023-04-14T12:02:02.772Z,63.62
2023-04-14T12:03:02.951Z,63.42
2023-04-14T12:04:03.026Z,62.51
2023-04-14T12:05:02.803Z,63.32
2023-04-14T12:06:02.690Z,63.39
2023-04-14T12:07:02.688Z,62.98
2023-04-14T12:08:02.664Z,62.27
2023-04-14T12:09:02.790Z,62.04
2023-04-14T12:10:02.637Z,61.53
2023-04-14T12:11:02.680Z,61.97
2023-04-14T12:12:02.633Z,61.76
2023-04-14T12:13:02.640Z,61.53
2023-04-14T12:14:02.577Z,61.53
2023-04-14T12:15:02.606Z,60.99
2023-04-14T12:16:02.582Z,60.52
2023-04-14T12:17:02.551Z,60.38
2023-04-14T12:18:02.662Z,59.37
2023-04-14T12:19:02.696Z,59.16
2023-04-14T12:20:02.503Z,58.86
2023-04-14T12:21:02.515Z,59.88
2023-04-14T12:22:02.509Z,59.95
2023-04-14T12:23:02.514Z,60.63
2023-04-14T12:24:02.499Z,59.92
2023-04-14T12:25:02.430Z,58.67
2023-04-14T12:26:02.443Z,60.30
2023-04-14T12:27:02.420Z,58.47
2023-04-14T12:28:02.406Z,58.50
2023-04-14T12:29:02.769Z,58.60
2023-04-14T12:30:02.363Z,58.73
2023-04-14T12:31:02.392Z,59.24
2023-04-14T12:32:02.487Z,60.97
2023-04-14T12:33:02.347Z,57.41
2023-04-14T12:34:02.308Z,58.53
2023-04-14T12:35:02.364Z,58.45
2023-04-14T12:36:02.327Z,59.77
2023-04-14T12:37:02.271Z,60.08
2023-04-14T12:38:02.275Z,59.47
2023-04-14T12:39:02.535Z,60.28
2023-04-14T12:40:02.243Z,59.37
2023-04-14T12:41:02.268Z,59.88
2023-04-14T12:42:02.218Z,59.37
2023-04-14T12:43:02.218Z,59.60
2023-04-14T12:44:02.250Z,59.98
2023-04-14T12:45:02.215Z,58.96
2023-04-14T12:46:02.177Z,59.27
2023-04-14T12:47:02.229Z,59.16
2023-04-14T12:48:02.198Z,59.88
2023-04-14T12:49:02.340Z,59.67
2023-04-14T12:50:02.144Z,60.15
2023-04-14T12:51:02.088Z,60.66
2023-04-14T12:52:02.097Z,60.15
2023-04-14T12:53:02.115Z,60.05
2023-04-14T12:54:02.080Z,59.75
2023-04-14T12:55:02.027Z,59.44
2023-04-14T12:56:02.021Z,59.14
2023-04-14T12:57:03.498Z,59.16
2023-04-14T12:58:02.012Z,58.89
2023-04-14T12:59:02.170Z,59.73
2023-04-14T13:00:02.185Z,59.55
2023-04-14T13:01:02.033Z,60.16
2023-04-14T13:02:02.043Z,61.00
2023-04-14T13:03:02.101Z,61.52
2023-04-14T13:04:02.048Z,61.82
2023-04-14T13:05:01.930Z,61.21
2023-04-14T13:06:01.925Z,61.61
2023-04-14T13:07:01.885Z,61.85
2023-04-14T13:08:01.919Z,61.75
2023-04-14T13:09:02.145Z,62.26
2023-04-14T13:10:01.844Z,62.46
2023-04-14T13:11:01.853Z,62.66
2023-04-14T13:12:01.821Z,62.08
2023-04-14T13:13:01.816Z,62.39
2023-04-14T13:14:01.792Z,63.00
2023-04-14T13:15:01.779Z,63.20
2023-04-14T13:16:13.906Z,63.20
2023-04-14T13:17:02.821Z,63.31
2023-04-14T13:18:01.779Z,63.92
2023-04-14T13:19:01.991Z,63.41
2023-04-14T13:20:01.730Z,61.88
2023-04-14T13:21:01.700Z,62.18